createdAt,value
2023-03-05T00:02:28.575Z,3.40
2023-03-05T00:05:16.406Z,3.30
2023-03-05T00:08:04.428Z,3.30
2023-03-05T00:10:57.277Z,3.20
2023-03-05T00:13:45.219Z,3.20
2023-03-05T00:16:35.198Z,3.20
2023-03-05T00:19:23.165Z,3.20
2023-03-05T00:22:11.194Z,3.20
2023-03-05T00:24:59.198Z,3.30
2023-03-05T00:27:47.214Z,3.20
2023-03-05T00:30:35.603Z,3.20
2023-03-05T00:33:24.910Z,3.20
2023-03-05T00:36:12.993Z,3.20
2023-03-05T00:39:01.136Z,3.10
2023-03-05T00:41:49.417Z,3.10
2023-03-05T00:44:37.331Z,3.00
2023-03-05T00:47:25.181Z,3.00
2023-03-05T00:50:14.357Z,3.00
2023-03-05T00:53:02.196Z,3.00
2023-03-05T00:55:50.424Z,3.00
2023-03-05T00:58:38.432Z,3.00
2023-03-05T01:01:26.613Z,3.00
2023-03-05T01:04:14.465Z,3.00
2023-03-05T01:07:03.712Z,3.00
2023-03-05T01:09:51.635Z,3.00
2023-03-05T01:12:39.571Z,3.00
2023-03-05T01:15:27.525Z,3.00
2023-03-05T01:18:15.921Z,3.00
2023-03-05T01:21:04.867Z,3.00
2023-03-05T01:23:54.394Z,2.90
2023-03-05T01:26:42.214Z,2.80
2023-03-05T01:29:30.086Z,2.90
2023-03-05T01:32:18.148Z,2.90
2023-03-05T01:35:07.574Z,2.90
2023-03-05T01:37:55.667Z,3.00
2023-03-05T01:40:45.106Z,3.00
2023-03-05T01:43:33.010Z,3.10
2023-03-05T01:46:35.278Z,2.90
2023-03-05T01:49:26.818Z,2.90
2023-03-05T01:52:18.417Z,3.00
2023-03-05T01:55:09.849Z,2.90
2023-03-05T01:58:04.121Z,2.90
2023-03-05T02:00:53.966Z,2.90
2023-03-05T02:03:42.438Z,2.90
2023-03-05T02:06:30.666Z,3.00
2023-03-05T02:09:18.541Z,3.10
2023-03-05T02:12:06.798Z,3.00
2023-03-05T02:14:59.314Z,3.00
2023-03-05T02:17:47.281Z,3.10
2023-03-05T02:20:46.097Z,3.00
2023-03-05T02:23:37.556Z,3.00
2023-03-05T02:26:25.347Z,3.00
2023-03-05T02:29:18.379Z,3.10
2023-03-05T02:32:06.468Z,3.20
2023-03-05T02:34:54.673Z,3.10
2023-03-05T02:37:42.954Z,3.10
2023-03-05T02:40:32.144Z,3.20
2023-03-05T02:43:20.193Z,3.10
2023-03-05T02:46:08.689Z,3.10
2023-03-05T02:48:57.021Z,3.20
2023-03-05T02:51:44.827Z,3.00
2023-03-05T02:54:32.766Z,3.00
2023-03-05T02:57:22.076Z,3.00
2023-03-05T03:00:11.449Z,3.10
2023-03-05T03:02:59.429Z,3.10
2023-03-05T03:05:47.340Z,3.10
2023-03-05T03:08:35.243Z,3.20
2023-03-05T03:11:23.041Z,3.20
2023-03-05T03:14:12.223Z,3.20
2023-03-05T03:17:00.351Z,3.10
2023-03-05T03:19:48.939Z,3.20
2023-03-05T03:22:37.034Z,3.20
2023-03-05T03:25:24.921Z,3.10
2023-03-05T03:28:12.885Z,3.20
2023-03-05T03:31:02.357Z,3.20
2023-03-05T03:33:50.351Z,3.20
2023-03-05T03:36:38.213Z,3.20
2023-03-05T03:39:26.417Z,3.20
2023-03-05T03:42:14.251Z,3.10
2023-03-05T03:45:02.329Z,3.10
2023-03-05T03:47:54.410Z,3.00
2023-03-05T03:50:42.892Z,3.00
2023-03-05T03:53:30.720Z,3.00
2023-03-05T03:56:18.597Z,3.00
2023-03-05T03:59:06.491Z,3.00
2023-03-05T04:01:54.298Z,3.00
2023-03-05T04:04:43.463Z,2.90
2023-03-05T04:07:31.292Z,2.90
2023-03-05T04:10:19.404Z,2.90
2023-03-05T04:13:07.683Z,2.90
2023-03-05T04:15:55.634Z,2.90
2023-03-05T04:18:43.964Z,2.90
2023-03-05T04:21:33.075Z,3.00
2023-03-05T04:24:20.874Z,3.00
2023-03-05T04:27:09.027Z,3.00
2023-03-05T04:29:57.069Z,3.10
2023-03-05T04:32:44.946Z,3.00
2023-03-05T04:35:32.919Z,3.00
2023-03-05T04:38:22.249Z,2.90
2023-03-05T04:41:10.060Z,2.90
2023-03-05T04:43:57.877Z,2.90
2023-03-05T04:46:45.962Z,2.90
2023-03-05T04:49:33.864Z,2.90
2023-03-05T04:52:21.822Z,3.00
2023-03-05T04:55:12.340Z,3.00
2023-03-05T04:58:00.394Z,3.00
2023-03-05T05:00:48.266Z,3.10
2023-03-05T05:03:36.507Z,3.00
2023-03-05T05:06:24.289Z,3.00
2023-03-05T05:09:12.093Z,3.00
2023-03-05T05:12:01.208Z,3.00
2023-03-05T05:14:49.059Z,3.00
2023-03-05T05:17:37.107Z,3.00
2023-03-05T05:20:26.362Z,3.00
2023-03-05T05:23:14.519Z,3.00
2023-03-05T05:26:04.167Z,3.00
2023-03-05T05:28:53.373Z,2.90
2023-03-05T05:31:41.912Z,2.90
2023-03-05T05:34:29.796Z,2.90
2023-03-05T05:37:17.630Z,2.90
2023-03-05T05:40:06.615Z,3.00
2023-03-05T05:42:54.649Z,2.80
2023-03-05T05:45:43.912Z,2.90
2023-03-05T05:48:33.353Z,2.90
2023-03-05T05:51:22.969Z,2.90
2023-03-05T05:54:13.636Z,2.90
2023-03-05T05:57:01.632Z,2.90
2023-03-05T05:59:49.508Z,2.90
2023-03-05T06:02:40.430Z,2.90
2023-03-05T06:05:28.294Z,2.90
2023-03-05T06:08:16.719Z,3.00
2023-03-05T06:11:04.815Z,3.20
2023-03-05T06:13:52.792Z,3.00
2023-03-05T06:16:41.099Z,3.00
2023-03-05T06:19:30.413Z,3.00
2023-03-05T06:22:18.272Z,3.00
2023-03-05T06:25:06.930Z,3.00
2023-03-05T06:27:54.714Z,3.00
2023-03-05T06:30:42.537Z,3.00
2023-03-05T06:33:30.706Z,3.00
2023-03-05T06:36:21.758Z,3.10
2023-03-05T06:39:09.645Z,3.10
2023-03-05T06:41:57.474Z,3.10
2023-03-05T06:44:47.174Z,3.10
2023-03-05T06:47:36.086Z,3.20
2023-03-05T06:50:24.067Z,3.10
2023-03-05T06:53:14.695Z,3.20
2023-03-05T06:56:02.901Z,3.10
2023-03-05T06:58:52.235Z,3.10
2023-03-05T07:01:40.282Z,3.10
2023-03-05T07:04:28.179Z,3.00
2023-03-05T07:07:16.012Z,3.10
2023-03-05T07:10:07.408Z,3.10
2023-03-05T07:12:55.175Z,3.10
2023-03-05T07:15:43.101Z,3.10
2023-03-05T07:18:31.041Z,3.10
2023-03-05T07:21:21.057Z,3.10
2023-03-05T07:24:09.900Z,3.10
2023-03-05T07:26:59.274Z,3.20
2023-03-05T07:29:47.193Z,3.20
2023-03-05T07:32:36.936Z,3.30
2023-03-05T07:35:25.257Z,3.30
2023-03-05T07:38:13.199Z,3.20
2023-03-05T07:41:03.620Z,3.30
2023-03-05T07:43:54.443Z,3.30
2023-03-05T07:46:42.613Z,3.40
2023-03-05T07:49:30.412Z,3.50
2023-03-05T07:52:18.761Z,3.50
2023-03-05T07:55:07.167Z,3.50
2023-03-05T07:57:55.022Z,3.60
2023-03-05T08:00:44.197Z,3.60
2023-03-05T08:03:32.001Z,3.60
2023-03-05T08:06:19.833Z,3.70
2023-03-05T08:09:07.968Z,3.70
2023-03-05T08:11:55.826Z,3.70
2023-03-05T08:14:43.642Z,3.70
2023-03-05T08:17:32.914Z,3.80
2023-03-05T08:20:20.878Z,3.70
2023-03-05T08:23:08.676Z,3.70
2023-03-05T08:25:56.701Z,3.60
2023-03-05T08:28:47.628Z,3.50
2023-03-05T08:31:36.174Z,3.50
2023-03-05T08:34:25.421Z,3.60
2023-03-05T08:37:13.209Z,3.60
2023-03-05T08:40:01.060Z,3.80
2023-03-05T08:42:49.034Z,3.90
2023-03-05T08:45:36.939Z,3.90
2023-03-05T08:48:24.775Z,3.90
2023-03-05T08:51:15.615Z,4.00
2023-03-05T08:54:06.819Z,4.00
2023-03-05T08:56:54.618Z,4.00
2023-03-05T08:59:42.484Z,3.90
2023-03-05T09:02:30.332Z,4.00
2023-03-05T09:05:19.100Z,4.00
2023-03-05T09:08:08.484Z,4.10
2023-03-05T09:10:56.508Z,4.10
2023-03-05T09:13:44.305Z,4.10
2023-03-05T09:16:32.700Z,4.10
2023-03-05T09:19:20.512Z,4.10
2023-03-05T09:22:08.307Z,4.00
2023-03-05T09:24:57.452Z,4.00
2023-03-05T09:27:45.663Z,4.10
2023-03-05T09:30:35.045Z,4.20
2023-03-05T09:33:24.546Z,4.20
2023-03-05T09:36:20.739Z,4.20
2023-03-05T09:39:08.857Z,4.20
2023-03-05T09:42:24.330Z,4.10
2023-03-05T09:45:22.291Z,4.00
2023-03-05T09:48:18.383Z,4.20
2023-03-05T09:51:11.293Z,4.20
2023-03-05T09:54:04.083Z,4.30
2023-03-05T09:56:57.560Z,4.30
2023-03-05T09:59:50.913Z,4.40
2023-03-05T10:02:48.711Z,4.40
2023-03-05T10:05:51.549Z,4.40
2023-03-05T10:08:47.833Z,4.40
2023-03-05T10:11:41.629Z,4.40
2023-03-05T10:14:31.794Z,4.50
2023-03-05T10:17:46.178Z,4.60
2023-03-05T10:20:47.093Z,4.40
2023-03-05T10:23:52.710Z,4.30
2023-03-05T10:26:51.890Z,4.20
2023-03-05T10:29:55.001Z,4.10
2023-03-05T10:32:54.579Z,4.20
2023-03-05T10:35:59.040Z,4.10
2023-03-05T10:39:01.014Z,4.10
2023-03-05T10:42:02.457Z,3.90
2023-03-05T10:44:53.812Z,3.80
2023-03-05T10:47:48.983Z,3.90
2023-03-05T10:50:42.835Z,3.80
2023-03-05T10:53:36.071Z,3.80
2023-03-05T10:56:27.597Z,3.80
2023-03-05T10:59:15.378Z,3.70
2023-03-05T11:02:05.795Z,3.70
2023-03-05T11:04:55.466Z,3.80
2023-03-05T11:07:43.426Z,3.80
2023-03-05T11:10:31.395Z,3.90
2023-03-05T11:13:26.924Z,3.90
2023-03-05T11:16:20.992Z,3.90
2023-03-05T11:19:19.088Z,3.80
2023-03-05T11:22:19.447Z,3.80
2023-03-05T11:25:19.014Z,3.80
2023-03-05T11:28:06.812Z,3.80
2023-03-05T11:31:01.173Z,3.70
2023-03-05T11:33:57.040Z,3.80
2023-03-05T11:37:03.505Z,3.80
2023-03-05T11:40:15.309Z,3.70
2023-03-05T11:43:04.259Z,3.80
2023-03-05T11:45:55.382Z,3.70
2023-03-05T11:48:44.934Z,3.80
2023-03-05T11:51:41.582Z,3.80
2023-03-05T11:54:34.567Z,3.80
2023-03-05T11:57:26.149Z,3.80
2023-03-05T12:00:17.187Z,3.80
2023-03-05T12:03:12.252Z,3.90
2023-03-05T12:06:07.992Z,4.00
2023-03-05T12:08:58.043Z,4.10
2023-03-05T12:11:47.010Z,4.30
2023-03-05T12:14:43.135Z,4.20
2023-03-05T12:17:38.562Z,4.30
2023-03-05T12:20:36.185Z,4.40
2023-03-05T12:23:26.939Z,4.40
2023-03-05T12:26:15.207Z,4.50
2023-03-05T12:29:03.219Z,4.80
2023-03-05T12:31:52.509Z,4.70
2023-03-05T12:34:58.898Z,4.80
2023-03-05T12:38:25.590Z,4.90
2023-03-05T12:41:44.302Z,4.90
2023-03-05T12:44:32.316Z,4.90
2023-03-05T12:47:23.507Z,4.90
2023-03-05T12:50:45.617Z,4.90
2023-03-05T12:53:33.458Z,4.90
2023-03-05T12:56:25.647Z,4.80
2023-03-05T12:59:15.108Z,5.00
2023-03-05T13:02:05.532Z,5.00
2023-03-05T13:04:59.313Z,5.00
2023-03-05T13:07:49.055Z,5.00
2023-03-05T13:10:36.962Z,5.00
2023-03-05T13:13:27.124Z,5.00
2023-03-05T13:16:20.164Z,4.90
2023-03-05T13:19:17.372Z,4.90
2023-03-05T13:22:12.880Z,4.80
2023-03-05T13:25:15.640Z,4.70
2023-03-05T13:28:04.545Z,4.60
2023-03-05T13:30:53.987Z,4.50
2023-03-05T13:33:52.609Z,4.40
2023-03-05T13:36:41.525Z,4.40
2023-03-05T13:39:33.648Z,4.40
2023-03-05T13:42:25.757Z,4.40
2023-03-05T13:45:24.577Z,4.40
2023-03-05T13:48:19.900Z,4.50
2023-03-05T13:51:09.519Z,4.50
2023-03-05T13:53:57.660Z,4.50
2023-03-05T13:56:56.511Z,4.50
2023-03-05T13:59:53.760Z,4.50
2023-03-05T14:02:44.127Z,4.40
2023-03-05T14:05:32.309Z,4.40
2023-03-05T14:08:23.724Z,4.40
2023-03-05T14:11:16.639Z,4.40
2023-03-05T14:14:16.771Z,4.40
2023-03-05T14:17:24.120Z,4.40
2023-03-05T14:20:27.385Z,4.50
2023-03-05T14:23:36.540Z,4.40
2023-03-05T14:26:31.397Z,4.40
2023-03-05T14:29:24.211Z,4.30
2023-03-05T14:32:21.861Z,4.30
2023-03-05T14:35:19.395Z,4.30
2023-03-05T14:38:08.645Z,4.30
2023-03-05T14:40:56.840Z,4.30
2023-03-05T14:43:44.756Z,4.20
2023-03-05T14:46:34.058Z,4.20
2023-03-05T14:49:21.841Z,4.20
2023-03-05T14:52:14.892Z,4.20
2023-03-05T14:55:03.320Z,4.20
2023-03-05T14:57:52.200Z,4.20
2023-03-05T15:00:39.973Z,4.20
2023-03-05T15:03:29.208Z,4.20
2023-03-05T15:06:25.605Z,4.20
2023-03-05T15:09:18.696Z,4.30
2023-03-05T15:12:07.179Z,4.30
2023-03-05T15:14:57.069Z,4.30
2023-03-05T15:17:47.395Z,4.40
2023-03-05T15:20:38.987Z,4.20
2023-03-05T15:23:29.666Z,4.20
2023-03-05T15:26:17.469Z,4.20
2023-03-05T15:29:05.357Z,4.20
2023-03-05T15:31:54.669Z,4.20
2023-03-05T15:34:42.690Z,4.20
2023-03-05T15:37:31.911Z,4.20
2023-03-05T15:40:21.864Z,4.20
2023-03-05T15:43:10.632Z,4.30
2023-03-05T15:45:58.533Z,4.30
2023-03-05T15:48:49.976Z,4.30
2023-03-05T15:51:38.017Z,4.30
2023-03-05T15:54:27.701Z,4.30
2023-03-05T15:57:15.615Z,4.30
2023-03-05T16:00:05.147Z,4.30
2023-03-05T16:02:53.209Z,4.30
2023-03-05T16:05:41.315Z,4.30
2023-03-05T16:08:29.649Z,4.20
2023-03-05T16:11:19.422Z,4.30
2023-03-05T16:14:10.553Z,4.30
2023-03-05T16:17:00.432Z,4.30
2023-03-05T16:19:51.253Z,4.30
2023-03-05T16:22:39.177Z,4.30
2023-03-05T16:25:26.948Z,4.30
2023-03-05T16:28:16.234Z,4.30
2023-03-05T16:31:04.302Z,4.30
2023-03-05T16:33:52.215Z,4.50
2023-03-05T16:36:40.211Z,4.20
2023-03-05T16:39:28.809Z,4.20
2023-03-05T16:42:17.208Z,4.20
2023-03-05T16:45:08.433Z,4.30
2023-03-05T16:47:56.226Z,4.20
2023-03-05T16:50:43.984Z,4.30
2023-03-05T16:53:31.805Z,4.30
2023-03-05T16:56:20.296Z,4.30
2023-03-05T16:59:08.179Z,4.20
2023-03-05T17:01:57.342Z,4.20
2023-03-05T17:04:45.242Z,4.10
2023-03-05T17:07:33.214Z,4.10
2023-03-05T17:10:21.279Z,4.20
2023-03-05T17:13:09.301Z,4.00
2023-03-05T17:15:57.728Z,4.00
2023-03-05T17:18:47.484Z,3.80
2023-03-05T17:21:35.404Z,3.80
2023-03-05T17:24:23.373Z,3.80
2023-03-05T17:27:12.954Z,3.80
2023-03-05T17:30:00.853Z,3.80
2023-03-05T17:32:48.989Z,3.70
2023-03-05T17:35:38.433Z,3.70
2023-03-05T17:38:27.020Z,3.70
2023-03-05T17:41:15.851Z,3.70
2023-03-05T17:44:04.474Z,3.70
2023-03-05T17:46:52.266Z,3.60
2023-03-05T17:49:40.091Z,3.70
2023-03-05T17:52:29.413Z,3.60
2023-03-05T17:55:18.619Z,3.60
2023-03-05T17:58:06.520Z,3.60
2023-03-05T18:00:54.442Z,3.60
2023-03-05T18:03:42.268Z,3.60
2023-03-05T18:06:30.225Z,3.60
2023-03-05T18:09:20.079Z,3.60
2023-03-05T18:12:08.306Z,3.50
2023-03-05T18:14:56.174Z,3.50
2023-03-05T18:17:44.774Z,3.50
2023-03-05T18:20:34.625Z,3.50
2023-03-05T18:23:22.621Z,3.50
2023-03-05T18:26:11.998Z,3.40
2023-03-05T18:28:59.855Z,3.40
2023-03-05T18:31:47.690Z,3.40
2023-03-05T18:34:35.685Z,3.40
2023-03-05T18:37:23.814Z,3.40
2023-03-05T18:40:18.106Z,3.40
2023-03-05T18:43:08.407Z,3.40
2023-03-05T18:45:57.278Z,3.40
2023-03-05T18:48:45.640Z,3.40
2023-03-05T18:51:34.664Z,3.40
2023-03-05T18:54:22.643Z,3.40
2023-03-05T18:57:10.406Z,3.40
2023-03-05T18:59:59.551Z,3.40
2023-03-05T19:02:47.384Z,3.30
2023-03-05T19:05:35.972Z,3.30
2023-03-05T19:08:23.810Z,3.30
2023-03-05T19:11:17.137Z,3.30
2023-03-05T19:14:04.967Z,3.30
2023-03-05T19:16:54.158Z,3.30
2023-03-05T19:19:42.762Z,3.30
2023-03-05T19:22:32.380Z,3.30
2023-03-05T19:25:20.562Z,3.30
2023-03-05T19:28:08.423Z,3.20
2023-03-05T19:30:56.219Z,3.20
2023-03-05T19:33:45.341Z,3.20
2023-03-05T19:36:34.336Z,3.20
2023-03-05T19:39:22.185Z,3.10
2023-03-05T19:42:10.130Z,3.20
2023-03-05T19:45:00.025Z,3.20
2023-03-05T19:47:48.016Z,3.20
2023-03-05T19:50:37.171Z,3.20
2023-03-05T19:53:25.344Z,3.20
2023-03-05T19:56:15.785Z,3.20
2023-03-05T19:59:03.633Z,3.20
2023-03-05T20:01:51.551Z,3.20
2023-03-05T20:04:39.367Z,3.20
2023-03-05T20:07:28.544Z,3.20
2023-03-05T20:10:16.425Z,3.20
2023-03-05T20:13:04.617Z,3.20
2023-03-05T20:15:52.698Z,3.20
2023-03-05T20:18:40.598Z,3.20
2023-03-05T20:21:30.708Z,3.30
2023-03-05T20:24:22.358Z,3.20
2023-03-05T20:27:10.119Z,3.20
2023-03-05T20:29:57.952Z,3.20
2023-03-05T20:32:47.410Z,3.20
2023-03-05T20:35:35.264Z,3.20
2023-03-05T20:38:25.892Z,3.20
2023-03-05T20:41:17.426Z,3.20
2023-03-05T20:44:05.480Z,3.20
2023-03-05T20:47:02.516Z,3.20
2023-03-05T20:49:54.583Z,3.10
2023-03-05T20:52:42.397Z,3.00
2023-03-05T20:55:30.271Z,3.00
2023-03-05T20:58:19.396Z,3.00
2023-03-05T21:01:07.402Z,2.90
2023-03-05T21:03:56.918Z,2.90
2023-03-05T21:06:44.740Z,2.90
2023-03-05T21:09:32.546Z,3.00
2023-03-05T21:12:20.332Z,2.80
2023-03-05T21:15:11.085Z,2.90
2023-03-05T21:17:59.337Z,2.90
2023-03-05T21:20:47.129Z,2.80
2023-03-05T21:23:35.151Z,2.80
2023-03-05T21:26:23.407Z,2.80
2023-03-05T21:29:11.208Z,2.80
2023-03-05T21:32:00.563Z,2.80
2023-03-05T21:34:48.413Z,2.90
2023-03-05T21:37:42.264Z,2.80
2023-03-05T21:40:30.680Z,2.80
2023-03-05T21:43:20.589Z,2.80
2023-03-05T21:46:09.369Z,2.80
2023-03-05T21:48:58.493Z,2.80
2023-03-05T21:51:58.890Z,2.80
2023-03-05T21:54:46.712Z,2.80
2023-03-05T21:57:34.485Z,2.80
2023-03-05T22:00:23.865Z,2.70
2023-03-05T22:03:11.682Z,2.70
2023-03-05T22:06:00.998Z,2.70
2023-03-05T22:08:49.567Z,2.70
2023-03-05T22:11:37.497Z,2.70
2023-03-05T22:14:25.459Z,2.70
2023-03-05T22:17:13.231Z,2.70
2023-03-05T22:20:01.366Z,2.70
2023-03-05T22:22:50.501Z,2.70
2023-03-05T22:25:38.623Z,2.80
2023-03-05T22:28:26.918Z,2.70
2023-03-05T22:31:21.678Z,2.70
2023-03-05T22:34:09.681Z,2.70
2023-03-05T22:36:57.956Z,2.70
2023-03-05T22:39:47.106Z,2.70
2023-03-05T22:42:34.911Z,2.70
2023-03-05T22:45:22.735Z,2.70
2023-03-05T22:48:11.597Z,2.80
2023-03-05T22:50:59.402Z,2.80
2023-03-05T22:53:47.736Z,2.90
2023-03-05T22:56:37.701Z,2.80
2023-03-05T22:59:25.587Z,2.80
2023-03-05T23:02:13.440Z,2.80
2023-03-05T23:05:01.581Z,2.80
2023-03-05T23:07:49.869Z,2.80
2023-03-05T23:10:37.932Z,2.80
2023-03-05T23:13:27.091Z,2.90
2023-03-05T23:16:14.956Z,2.80
2023-03-05T23:19:02.812Z,2.90
2023-03-05T23:21:50.659Z,2.90
2023-03-05T23:24:38.893Z,2.80
2023-03-05T23:27:26.869Z,3.00
2023-03-05T23:30:19.683Z,2.80
2023-03-05T23:33:09.005Z,2.90
2023-03-05T23:35:58.684Z,2.90
2023-03-05T23:38:46.684Z,2.90
2023-03-05T23:41:34.524Z,2.90
2023-03-05T23:44:22.424Z,2.90
2023-03-05T23:47:11.600Z,2.90
2023-03-05T23:49:59.368Z,2.90
2023-03-05T23:52:47.836Z,3.00
2023-03-05T23:55:38.036Z,3.00
2023-03-05T23:58:26.160Z,3.00
